Dylan Dest

Scout - Nashville SC
11 Mär 2027
Donnerstag
Verarbeitung

Persönlichkeit

Anpassungsfähigkeit (17) Ehrgeiz (19) Kontroverse (5) Loyalität (12) Druck (9) Professionalität (12) Fairness (10) Temperament (2)

Profil

Trainerstil Demokratisch
Lizenz Nationale B
Entschlossenheit 5
Menschenführung 6
Motivation 9
Disziplin 7
Arbeitszufriedenheit
94%
Ermüdung
0%
Rolle Scout
Gehalt 57.8K p/W
Vertrag 14.03.2027

Leistung

Verhalten Gut
Trainingseffektivität
22%
Spielerentwicklung
50%
Verletzungsprävention
50%
Taktische Umsetzung
25%

Letzte Ereignisse

Vertragsverhandlung begonnen jetzt
Nahm an einer Scouting-Besprechung teil jetzt
Nahm an einer Scouting-Besprechung teil jetzt
Nahm an einer Scouting-Besprechung teil jetzt
Vertragsverhandlung begonnen 7T her
Vertragsverhandlung begonnen 7T her
Spiel beobachtet 7T her
Vertragsverhandlung begonnen 7T her

Aktuell beobachtet

139
Spieler Verein Status Fähigkeit Vertrauen Beobachtet Zuletzt beobachtet Letzte Stimme
Jack Currie Oxford United Aktiv 114 / 138 40% 3 11.02.2027 -
Ollie Tanner Cardiff City Aktiv 123 / 110 40% 1 11.02.2027 -
Arthur Okonkwo Wrexham Aktiv 132 / 130 40% 1 09.02.2027 -
Matvii Ponomarenko Dynamo Kyiv Aktiv 104 / 125 40% 1 08.02.2027 Mehr Infos nötig
Dylan Jones Norwich City Aktiv 68 / 96 40% 1 08.02.2027 -
Nathan Bishop AFC Wimbledon Aktiv 111 / 102 40% 3 07.02.2027 -
Martin Velichkov Lokomotiv Sofia Aktiv 86 / 106 40% 2 07.02.2027 -
Maksym Kovaliov Spartak 1918 Aktiv 89 / 91 40% 3 06.02.2027 -
Mateusz Kochalski Dynamo Kyiv Aktiv 149 / 123 40% 2 06.02.2027 -
Lukas Jensen Millwall Aktiv 130 / 109 40% 1 05.02.2027 -
Michael Cooper Sheffield United Aktiv 129 / 121 40% 1 05.02.2027 -
João Virgínia Wolverhampton Aktiv 130 / 127 40% 1 04.02.2027 -
Lévi Ntumba Slavia Sofia Aktiv 94 / 102 40% 2 02.02.2027 -
Max Johnston Derby County Aktiv 144 / 110 40% 1 02.02.2027 Mehr Infos nötig
Derensili Sanches Fernandes Huddersfield Town Aktiv 133 / 113 40% 1 02.02.2027 -
Felipe Zenobio Tigre Aktiv 134 / 134 40% 2 31.01.2027 -
Radek Vítek Middlesbrough Aktiv 115 / 146 40% 1 31.01.2027 -
Zach Hemming Chesterfield Aktiv 89 / 117 40% 2 30.01.2027 -
Mark Travers Everton Aktiv 127 / 124 40% 1 30.01.2027 -
Fletcher Holman Swindon Town Aktiv 67 / 98 40% 1 30.01.2027 -
Chinonso Chibueze Harrogate Town Aktiv 77 / 70 40% 1 30.01.2027 Mehr Infos nötig
Mandla Erasmus SuperSport United Aktiv 122 / 128 40% 2 29.01.2027 -
Tyrese Campbell Sheffield United Aktiv 128 / 116 40% 1 29.01.2027 -
Joel Orlando Almagro Aktiv 116 / 118 40% 1 29.01.2027 -
Hazeem Bakre Crawley Town Aktiv 67 / 102 40% 1 29.01.2027 -
Bradley Mabunda SuperSport United Aktiv 99 / 114 40% 3 26.01.2027 -
Thulani Erasmus Platinum Stars Aktiv 87 / 117 40% 2 26.01.2027 -
Sebastián Meza Huracán Aktiv 124 / 135 40% 1 26.01.2027 -
Francis Sulemana BA All Stars Aktiv 88 / 72 40% 1 26.01.2027 -
Oleksandr Saputin Poltava Aktiv 131 / 121 40% 1 24.01.2027 -
Jake Turner Gillingham Aktiv 80 / 84 40% 1 24.01.2027 -
Stanley Mills Oxford United Aktiv 137 / 131 40% 1 23.01.2027 -
Mohamed Belloumi Hull City Aktiv 120 / 120 40% 1 23.01.2027 -
Loum Tchaouna Coventry City Aktiv 160 / 142 40% 1 22.01.2027 -
Jack Clarke Ipswich Town Aktiv 122 / 128 40% 1 22.01.2027 -
Sergio Arribas Almería Aktiv 137 / 143 40% 2 21.01.2027 -
Kamory Doumbia Stade Brestois Aktiv 133 / 123 40% 1 21.01.2027 -
Ander Barrenetxea Real Sociedad Aktiv 138 / 141 40% 2 20.01.2027 -
Christian Krasnodar Aktiv 145 / 126 40% 2 20.01.2027 -
Terry Devlin Portsmouth Aktiv 136 / 138 40% 2 18.01.2027 -
Arkaitz Mariezkurrena Real Sociedad Aktiv 130 / 136 40% 1 17.01.2027 -
Marcelo Allende Mamelodi Sundowns Aktiv 153 / 114 40% 2 16.01.2027 -
Luciano Gondou CSKA Moscow Aktiv 124 / 143 40% 1 16.01.2027 -
Valentyn Morhun Kolos Aktiv 122 / 92 40% 1 15.01.2027 -
Daniil Frolkin Fakel Aktiv 126 / 91 40% 1 15.01.2027 -
Jack Bycroft Exeter City Aktiv 101 / 71 40% 1 12.01.2027 -
Richard Ludha MFK Skalica Aktiv 105 / 104 40% 3 10.01.2027 -
Luca Gemello Perugia Aktiv 120 / 101 40% 1 10.01.2027 -
Harrison Ofori Liberty Professionals Aktiv 109 / 86 40% 2 08.01.2027 -
Tristan Crama Millwall Aktiv 104 / 138 40% 1 06.01.2027 -
Fedor Lapoukhov CSKA Sofia Aktiv 117 / 125 40% 1 05.01.2027 -
Dimitar Sheytanov CSKA 1948 Aktiv 90 / 103 40% 1 03.01.2027 -
Vadym Yushchyshyn UCSA Aktiv 92 / 106 40% 1 02.01.2027 -
Reda Khadra Qarabag Aktiv 116 / 127 40% 1 31.12.2026 -
Matías Fernández-Pardo Newcastle United Aktiv 143 / 127 40% 1 30.12.2026 -
Lwanda Mbanjwa Maritzburg United Aktiv 80 / 111 40% 1 29.12.2026 -
Lewis Ferguson Bologna Aktiv 150 / 130 40% 1 27.12.2026 -
Daniel Phillips Stevenage Aktiv 126 / 100 40% 1 26.12.2026 -
Aidomo Emakhu Oxford United Aktiv 119 / 133 40% 1 26.12.2026 -
Thomas Ofori BA All Stars Aktiv 88 / 77 40% 1 25.12.2026 -
Max Conway Bolton Wanderers Aktiv 135 / 103 40% 1 23.12.2026 -
Antonio Galeano Remo Stars Aktiv 132 / 127 40% 1 23.12.2026 -
Alan Lescano Argentinos Juniors Aktiv 140 / 134 40% 1 22.12.2026 -
Humphrey Katasi AFC Leopards Aktiv 103 / 101 40% 1 22.12.2026 -
Roman Celentano FC Cincinnati Aktiv 130 / 118 40% 1 22.12.2026 -
Conrad Wallem Austria Wien Aktiv 118 / 137 40% 2 20.12.2026 -
Lévy Néne FC Nordsjaelland Aktiv 96 / 134 40% 1 19.12.2026 -
Keagan Mokoena Free State Stars Aktiv 99 / 113 40% 1 19.12.2026 -
Ousseynou Seck Randers Aktiv 124 / 123 40% 1 18.12.2026 -
Senny Mayulu Paris Saint-Germain Aktiv 153 / 160 40% 1 18.12.2026 -
Dominik Takáč Slovan Bratislava Aktiv 141 / 117 40% 2 17.12.2026 -
Daniel Barden Segesta Aktiv 83 / 79 40% 1 17.12.2026 -
Gregory Sekyere Aduana Stars Aktiv 80 / 96 40% 1 14.12.2026 -
Eseosa Sule West Bromwich Albion Aktiv 105 / 94 40% 1 13.12.2026 -
Abraham Afful BA All Stars Aktiv 80 / 80 40% 1 12.12.2026 -
Williams Mothiba Black Aces Aktiv 69 / 110 40% 1 11.12.2026 -
Marios Siabanis Volos NPS Aktiv 101 / 109 40% 1 10.12.2026 -
Islam Imamov SKA Khabarovsk Aktiv 99 / 92 40% 1 10.12.2026 -
Santiago Silva CFR Cluj Aktiv 108 / 115 40% 2 06.12.2026 -
Bernard Sulemana Hasaacas Aktiv 97 / 105 40% 1 06.12.2026 -
John Amah Plateau United Aktiv 100 / 84 40% 3 03.12.2026 -
Agustín Lastra Estudiantes Aktiv 116 / 114 40% 1 03.12.2026 -
Vincent Edafe Warri Wolves Aktiv 81 / 81 40% 1 01.12.2026 -
Keagan Mothiba SuperSport United Aktiv 128 / 116 40% 1 30.11.2026 -
Francisco Meixedo Feirense Aktiv 126 / 95 40% 1 28.11.2026 -
Lukas Gütlbauer Wolfsberger AC Aktiv 113 / 106 40% 4 26.11.2026 -
John Pulskamp Sporting Kansas City Aktiv 129 / 107 40% 2 26.11.2026 -
Mduduzi Shabalala Kaizer Chiefs Aktiv 107 / 100 40% 1 24.11.2026 -
Nicolás Fernández Mercau Shakhtar Aktiv 126 / 135 40% 1 23.11.2026 -
Maxim De Cuyper Brighton Aktiv 143 / 128 40% 1 22.11.2026 -
Felix Kyei Medeama Aktiv 73 / 109 40% 2 18.11.2026 -
Antonio Đaković HNK Vukovar 1991 Aktiv 120 / 128 40% 1 16.11.2026 -
Kyrylo Fesiun Shakhtar Aktiv 115 / 111 40% 3 15.11.2026 -
Patrick Schulte Columbus Crew Aktiv 112 / 134 40% 2 15.11.2026 -
Matthew Garbett Peterborough United Aktiv 95 / 128 40% 2 15.11.2026 -
Trai Hume Sunderland Aktiv 127 / 127 40% 1 15.11.2026 -
Svetoslav Vutsov Levski Aktiv 143 / 115 40% 1 14.11.2026 -
Ilja Kuptsov Veles Aktiv 87 / 85 40% 1 14.11.2026 -
Leopold Wahlstedt Rosenborg Aktiv 115 / 109 40% 1 12.11.2026 -
Ikenna Benjamin Bayelsa United Aktiv 86 / 86 40% 1 11.11.2026 -
Heorhii Yermakov Metalist Aktiv 96 / 101 40% 1 11.11.2026 -
Aljoša Matko Ujpest Aktiv 106 / 108 40% 1 09.11.2026 -
Keagan Tau Ajax Cape Town Aktiv 88 / 90 40% 1 09.11.2026 -
Olaniyi Saheed Kwara United Aktiv 95 / 83 40% 1 08.11.2026 -
Luke Thomas Leicester City Aktiv 146 / 118 40% 1 07.11.2026 -
Ezra Mayers West Ham United Aktiv 110 / 136 40% 1 04.11.2026 -
Bénie Traoré New York City Aktiv 118 / 122 40% 2 27.10.2026 -
Iván Angulo Orlando City Aktiv 126 / 134 40% 2 27.10.2026 -
Ollie Wright Cheltenham Town Aktiv 75 / 78 40% 1 26.10.2026 -
Tshepang Moremi Orlando Pirates Aktiv 131 / 121 40% 1 24.10.2026 -
Marco Pašalić Orlando City Aktiv 122 / 121 40% 1 24.10.2026 -
Ali Ishaku Abia Warriors Aktiv 74 / 107 40% 3 21.10.2026 -
Santiago Rodríguez Columbus Crew Aktiv 138 / 124 40% 1 20.10.2026 -
Biola Sabitu Remo Stars Aktiv 106 / 81 40% 1 17.10.2026 -
David Volk Dinamo Makhachkala Aktiv 95 / 114 40% 1 17.10.2026 -
Ameh Godwin Nasarawa United Aktiv 91 / 90 40% 1 13.10.2026 -
Bongani Modiba Black Aces Aktiv 129 / 111 40% 1 11.10.2026 -
Petar Stanić Ludogorets Aktiv 123 / 146 40% 1 11.10.2026 -
Brian Bwire Polokwane City Aktiv 80 / 77 40% 1 06.10.2026 -
Caio Vidal Ludogorets Aktiv 123 / 126 40% 1 06.10.2026 -
Filip Marschall Stevenage Aktiv 112 / 114 40% 1 04.10.2026 -
Luka Gavran Toronto FC Aktiv 109 / 121 40% 1 03.10.2026 -
Mohamed Camara Asante Kotoko Aktiv 75 / 104 40% 2 01.10.2026 -
CJ dos Santos San Diego Football Club Aktiv 125 / 97 40% 1 01.10.2026 -
Daniil Khudyakov Sturm Graz Aktiv 116 / 135 40% 1 27.09.2026 -
Ani Ozoemena Rivers United Aktiv 77 / 81 40% 1 25.09.2026 -
Mustapha Lawal Shooting Stars Aktiv 72 / 85 40% 1 21.09.2026 -
Jonathan Sirois FC Dallas Aktiv 116 / 112 40% 1 21.09.2026 -
Michael Atata Ikorodu City Aktiv 69 / 94 40% 2 20.09.2026 -
Sean Fusire Sheffield Wednesday Aktiv 84 / 102 40% 1 17.09.2026 -
Yahaya Ibrahim Plateau United Aktiv 103 / 87 40% 1 17.09.2026 -
Francisco Castillo Llaneros Aktiv 95 / 102 40% 1 14.09.2026 -
Gift Hlatshwayo Free State Stars Aktiv 107 / 113 40% 1 13.09.2026 -
Daniel Dennis Ikorodu City Aktiv 108 / 103 40% 1 13.09.2026 -
Wellity Lucky Liverpool Aktiv 92 / 115 40% 1 13.09.2026 -
Tyler Fletcher Manchester United Aktiv 109 / 118 40% 1 10.09.2026 -
Elías Báez Atlanta United FC Aktiv 108 / 120 40% 1 10.09.2026 -
Simphiwe Selepe Orlando Pirates Aktiv 121 / 116 40% 1 09.09.2026 -
George Marks Philadelphia Union Aktiv 95 / 103 48% 1 03.08.2026 -